KAFF

Usaf Academy Afld Airport

Colorado Springs, Colorado, USA
METAR KAFF 241256Z AUTO 34009G14KT 10SM CLR 15/M03 A3003 RMK AO2 SLP081 T01541026
Observed Flight Rules
Sep-24 @ 12:56 UTC (44 minutes ago) Visual Flight Rules
Wind Visibility Clouds
340° at 9 knots
 Gusting to 14 knots
10 miles
  • Clear skies
Temperatures Readings
Current 15°C / 59°F
Dewpoint -3°C / 27°F
Humidity 29%
Altimeter 30.03" Hg
Pressure 1008.1 hPa
Elevation 2003
METAR KAFF 241256Z AUTO 34009G14KT 10SM CLR 15/M03 A3003 RMK AO2 SLP081 T01541026
Observed Flight Rules
Sep-24 @ 12:56 UTC
(44 minutes ago)
VFR
Wind Visibility
340° at 9 knots
 Gusting to 14 knots
10 miles
Clouds
  • Clear skies
Temperature Dewpoint
15°C / 59°F -3°C / 27°F
Humidity Altimeter Pressure
29% 30.03" Hg 1008.1 hPa